sensor_id;sensor_type;location;lat;lon;timestamp;temperature;humidity
21622;DHT22;10973;46.706;12.340;2022-12-20T00:01:36;-4.20;99.90
21622;DHT22;10973;46.706;12.340;2022-12-20T00:04:04;-4.20;99.90
21622;DHT22;10973;46.706;12.340;2022-12-20T00:06:34;-4.20;99.90
21622;DHT22;10973;46.706;12.340;2022-12-20T00:09:05;-4.20;99.90
21622;DHT22;10973;46.706;12.340;2022-12-20T00:11:37;-4.20;99.90
21622;DHT22;10973;46.706;12.340;2022-12-20T00:14:07;-4.30;99.90
21622;DHT22;10973;46.706;12.340;2022-12-20T00:16:36;-4.20;99.90
21622;DHT22;10973;46.706;12.340;2022-12-20T00:19:05;-4.20;99.90
21622;DHT22;10973;46.706;12.340;2022-12-20T00:21:33;-4.30;99.90
21622;DHT22;10973;46.706;12.340;2022-12-20T00:24:02;-4.30;99.90
21622;DHT22;10973;46.706;12.340;2022-12-20T00:26:32;-4.20;99.90
21622;DHT22;10973;46.706;12.340;2022-12-20T00:29:00;-4.20;99.90
21622;DHT22;10973;46.706;12.340;2022-12-20T00:31:29;-4.20;99.90
21622;DHT22;10973;46.706;12.340;2022-12-20T00:33:58;-4.20;99.90
21622;DHT22;10973;46.706;12.340;2022-12-20T00:36:27;-4.20;99.90
21622;DHT22;10973;46.706;12.340;2022-12-20T00:38:57;-4.30;99.90
21622;DHT22;10973;46.706;12.340;2022-12-20T00:41:28;-4.30;99.90
21622;DHT22;10973;46.706;12.340;2022-12-20T00:43:57;-4.30;99.90
21622;DHT22;10973;46.706;12.340;2022-12-20T00:46:25;-4.40;99.90
21622;DHT22;10973;46.706;12.340;2022-12-20T00:48:53;-4.40;99.90
21622;DHT22;10973;46.706;12.340;2022-12-20T00:51:24;-4.40;99.90
21622;DHT22;10973;46.706;12.340;2022-12-20T00:53:53;-4.40;99.90
21622;DHT22;10973;46.706;12.340;2022-12-20T00:56:21;-4.50;99.90
21622;DHT22;10973;46.706;12.340;2022-12-20T00:58:51;-4.40;99.90
21622;DHT22;10973;46.706;12.340;2022-12-20T01:01:20;-4.40;99.90
21622;DHT22;10973;46.706;12.340;2022-12-20T01:03:53;-4.40;99.90
21622;DHT22;10973;46.706;12.340;2022-12-20T01:06:22;-4.40;99.90
21622;DHT22;10973;46.706;12.340;2022-12-20T01:08:51;-4.40;99.90
21622;DHT22;10973;46.706;12.340;2022-12-20T01:11:21;-4.40;99.90
21622;DHT22;10973;46.706;12.340;2022-12-20T01:13:52;-4.40;99.90
21622;DHT22;10973;46.706;12.340;2022-12-20T01:18:52;-4.40;99.90
21622;DHT22;10973;46.706;12.340;2022-12-20T01:21:22;-4.30;99.90
21622;DHT22;10973;46.706;12.340;2022-12-20T01:23:51;-4.30;99.90
21622;DHT22;10973;46.706;12.340;2022-12-20T01:26:21;-4.30;99.90
21622;DHT22;10973;46.706;12.340;2022-12-20T01:28:56;-4.30;99.90
21622;DHT22;10973;46.706;12.340;2022-12-20T01:31:26;-4.30;99.90
21622;DHT22;10973;46.706;12.340;2022-12-20T01:33:55;-4.30;99.90
21622;DHT22;10973;46.706;12.340;2022-12-20T01:36:27;-4.30;99.90
21622;DHT22;10973;46.706;12.340;2022-12-20T01:39:06;-4.30;99.90
21622;DHT22;10973;46.706;12.340;2022-12-20T01:41:37;-4.40;99.90
21622;DHT22;10973;46.706;12.340;2022-12-20T01:44:49;-4.40;99.90
21622;DHT22;10973;46.706;12.340;2022-12-20T01:46:53;-4.40;99.90
21622;DHT22;10973;46.706;12.340;2022-12-20T01:49:33;-4.40;99.90
21622;DHT22;10973;46.706;12.340;2022-12-20T01:52:11;-4.40;99.90
21622;DHT22;10973;46.706;12.340;2022-12-20T01:55:01;-4.40;99.90
21622;DHT22;10973;46.706;12.340;2022-12-20T01:57:43;-4.40;99.90
21622;DHT22;10973;46.706;12.340;2022-12-20T02:00:12;-4.40;99.90
21622;DHT22;10973;46.706;12.340;2022-12-20T02:02:41;-4.40;99.90
21622;DHT22;10973;46.706;12.340;2022-12-20T02:05:12;-4.40;99.90
21622;DHT22;10973;46.706;12.340;2022-12-20T02:07:42;-4.40;99.90
21622;DHT22;10973;46.706;12.340;2022-12-20T02:10:11;-4.30;99.90
21622;DHT22;10973;46.706;12.340;2022-12-20T02:12:41;-4.30;99.90
21622;DHT22;10973;46.706;12.340;2022-12-20T02:15:34;-4.30;99.90
21622;DHT22;10973;46.706;12.340;2022-12-20T02:18:40;-4.30;99.90
21622;DHT22;10973;46.706;12.340;2022-12-20T02:21:32;-4.40;99.90
21622;DHT22;10973;46.706;12.340;2022-12-20T02:30:04;-4.50;99.90
21622;DHT22;10973;46.706;12.340;2022-12-20T02:35:29;-4.50;99.90
21622;DHT22;10973;46.706;12.340;2022-12-20T02:38:02;-4.50;99.90
21622;DHT22;10973;46.706;12.340;2022-12-20T02:40:51;-4.50;99.90
21622;DHT22;10973;46.706;12.340;2022-12-20T02:43:24;-4.50;99.90
21622;DHT22;10973;46.706;12.340;2022-12-20T02:45:56;-4.50;99.90
21622;DHT22;10973;46.706;12.340;2022-12-20T02:48:28;-4.50;99.90
21622;DHT22;10973;46.706;12.340;2022-12-20T02:50:59;-4.50;99.90
21622;DHT22;10973;46.706;12.340;2022-12-20T02:53:29;-4.50;99.90
21622;DHT22;10973;46.706;12.340;2022-12-20T02:59:14;-4.40;99.90
21622;DHT22;10973;46.706;12.340;2022-12-20T03:01:51;-4.40;99.90
21622;DHT22;10973;46.706;12.340;2022-12-20T03:04:23;-4.50;99.90
21622;DHT22;10973;46.706;12.340;2022-12-20T03:07:05;-4.50;99.90
21622;DHT22;10973;46.706;12.340;2022-12-20T03:09:41;-4.50;99.90
21622;DHT22;10973;46.706;12.340;2022-12-20T03:12:11;-4.50;99.90
21622;DHT22;10973;46.706;12.340;2022-12-20T03:14:39;-4.50;99.90
21622;DHT22;10973;46.706;12.340;2022-12-20T03:17:08;-4.50;99.90
21622;DHT22;10973;46.706;12.340;2022-12-20T03:19:35;-4.50;99.90
21622;DHT22;10973;46.706;12.340;2022-12-20T03:22:02;-4.50;99.90
21622;DHT22;10973;46.706;12.340;2022-12-20T03:24:30;-4.50;99.90
21622;DHT22;10973;46.706;12.340;2022-12-20T03:26:57;-4.50;99.90
21622;DHT22;10973;46.706;12.340;2022-12-20T03:29:24;-4.40;99.90
21622;DHT22;10973;46.706;12.340;2022-12-20T03:31:51;-4.40;99.90
21622;DHT22;10973;46.706;12.340;2022-12-20T03:34:19;-4.60;99.90
21622;DHT22;10973;46.706;12.340;2022-12-20T03:36:46;-4.60;99.90
21622;DHT22;10973;46.706;12.340;2022-12-20T03:39:14;-4.60;99.90
21622;DHT22;10973;46.706;12.340;2022-12-20T03:41:41;-4.60;99.90
21622;DHT22;10973;46.706;12.340;2022-12-20T03:44:09;-4.60;99.90
21622;DHT22;10973;46.706;12.340;2022-12-20T03:46:36;-4.60;99.90
21622;DHT22;10973;46.706;12.340;2022-12-20T03:49:03;-4.50;99.90
21622;DHT22;10973;46.706;12.340;2022-12-20T03:51:31;-4.50;99.90
21622;DHT22;10973;46.706;12.340;2022-12-20T03:53:58;-4.50;99.90
21622;DHT22;10973;46.706;12.340;2022-12-20T03:56:25;-4.60;99.90
21622;DHT22;10973;46.706;12.340;2022-12-20T03:58:52;-4.60;99.90
21622;DHT22;10973;46.706;12.340;2022-12-20T04:01:23;-4.60;99.90
21622;DHT22;10973;46.706;12.340;2022-12-20T04:03:53;-4.60;99.90
21622;DHT22;10973;46.706;12.340;2022-12-20T04:06:22;-4.50;99.90
21622;DHT22;10973;46.706;12.340;2022-12-20T04:08:49;-4.50;99.90
21622;DHT22;10973;46.706;12.340;2022-12-20T04:11:17;-4.60;99.90
21622;DHT22;10973;46.706;12.340;2022-12-20T04:13:45;-4.60;99.90
21622;DHT22;10973;46.706;12.340;2022-12-20T04:16:17;-4.60;99.90
21622;DHT22;10973;46.706;12.340;2022-12-20T04:18:46;-4.60;99.90
21622;DHT22;10973;46.706;12.340;2022-12-20T04:21:13;-4.60;99.90
21622;DHT22;10973;46.706;12.340;2022-12-20T04:23:42;-4.50;99.90
21622;DHT22;10973;46.706;12.340;2022-12-20T04:26:10;-4.50;99.90
21622;DHT22;10973;46.706;12.340;2022-12-20T04:28:37;-4.50;99.90
21622;DHT22;10973;46.706;12.340;2022-12-20T04:31:04;-4.50;99.90
21622;DHT22;10973;46.706;12.340;2022-12-20T04:33:32;-4.60;99.90
21622;DHT22;10973;46.706;12.340;2022-12-20T04:35:59;-4.60;99.90
21622;DHT22;10973;46.706;12.340;2022-12-20T04:38:26;-4.60;99.90
21622;DHT22;10973;46.706;12.340;2022-12-20T04:40:54;-4.70;99.90
21622;DHT22;10973;46.706;12.340;2022-12-20T04:43:23;-4.70;99.90
21622;DHT22;10973;46.706;12.340;2022-12-20T04:45:53;-4.70;99.90
21622;DHT22;10973;46.706;12.340;2022-12-20T04:48:22;-4.70;99.90
21622;DHT22;10973;46.706;12.340;2022-12-20T04:51:11;-4.70;99.90
21622;DHT22;10973;46.706;12.340;2022-12-20T04:53:38;-4.70;99.90
21622;DHT22;10973;46.706;12.340;2022-12-20T04:56:06;-4.70;99.90
21622;DHT22;10973;46.706;12.340;2022-12-20T04:58:34;-4.70;99.90
21622;DHT22;10973;46.706;12.340;2022-12-20T05:01:01;-4.70;99.90
21622;DHT22;10973;46.706;12.340;2022-12-20T05:03:29;-4.80;99.90
21622;DHT22;10973;46.706;12.340;2022-12-20T05:05:56;-4.80;99.90
21622;DHT22;10973;46.706;12.340;2022-12-20T05:08:24;-4.80;99.90
21622;DHT22;10973;46.706;12.340;2022-12-20T05:10:51;-4.80;99.90
21622;DHT22;10973;46.706;12.340;2022-12-20T05:13:18;-4.80;99.90
21622;DHT22;10973;46.706;12.340;2022-12-20T05:15:50;-4.80;99.90
21622;DHT22;10973;46.706;12.340;2022-12-20T05:18:18;-4.70;99.90
21622;DHT22;10973;46.706;12.340;2022-12-20T05:20:46;-4.80;99.90
21622;DHT22;10973;46.706;12.340;2022-12-20T05:23:14;-4.80;99.90
21622;DHT22;10973;46.706;12.340;2022-12-20T05:25:47;-4.80;99.90
21622;DHT22;10973;46.706;12.340;2022-12-20T05:28:16;-4.80;99.90
21622;DHT22;10973;46.706;12.340;2022-12-20T05:30:43;-4.80;99.90
21622;DHT22;10973;46.706;12.340;2022-12-20T05:33:10;-4.70;99.90
21622;DHT22;10973;46.706;12.340;2022-12-20T05:35:38;-4.70;99.90
21622;DHT22;10973;46.706;12.340;2022-12-20T05:38:06;-4.80;99.90
21622;DHT22;10973;46.706;12.340;2022-12-20T05:40:33;-4.70;99.90
21622;DHT22;10973;46.706;12.340;2022-12-20T05:43:01;-4.80;99.90
21622;DHT22;10973;46.706;12.340;2022-12-20T05:45:29;-4.80;99.90
21622;DHT22;10973;46.706;12.340;2022-12-20T05:47:56;-4.80;99.90
21622;DHT22;10973;46.706;12.340;2022-12-20T05:50:24;-4.80;99.90
21622;DHT22;10973;46.706;12.340;2022-12-20T05:52:51;-4.80;99.90
21622;DHT22;10973;46.706;12.340;2022-12-20T05:55:19;-4.80;99.90
21622;DHT22;10973;46.706;12.340;2022-12-20T05:57:46;-4.90;99.90
21622;DHT22;10973;46.706;12.340;2022-12-20T06:00:13;-4.90;99.90
21622;DHT22;10973;46.706;12.340;2022-12-20T06:02:41;-4.90;99.90
21622;DHT22;10973;46.706;12.340;2022-12-20T06:05:08;-4.80;99.90
21622;DHT22;10973;46.706;12.340;2022-12-20T06:07:36;-4.80;99.90
21622;DHT22;10973;46.706;12.340;2022-12-20T06:10:03;-4.80;99.90
21622;DHT22;10973;46.706;12.340;2022-12-20T06:12:31;-4.90;99.90
21622;DHT22;10973;46.706;12.340;2022-12-20T06:14:58;-4.80;99.90
21622;DHT22;10973;46.706;12.340;2022-12-20T06:17:25;-4.80;99.90
21622;DHT22;10973;46.706;12.340;2022-12-20T06:19:53;-4.90;99.90
21622;DHT22;10973;46.706;12.340;2022-12-20T06:22:20;-4.90;99.90
21622;DHT22;10973;46.706;12.340;2022-12-20T06:24:47;-4.90;99.90
21622;DHT22;10973;46.706;12.340;2022-12-20T06:27:14;-4.90;99.90
21622;DHT22;10973;46.706;12.340;2022-12-20T06:29:42;-4.90;99.90
21622;DHT22;10973;46.706;12.340;2022-12-20T06:32:09;-5.00;99.90
21622;DHT22;10973;46.706;12.340;2022-12-20T06:34:36;-5.00;99.90
21622;DHT22;10973;46.706;12.340;2022-12-20T06:37:04;-5.00;99.90
21622;DHT22;10973;46.706;12.340;2022-12-20T06:39:31;-5.00;99.90
21622;DHT22;10973;46.706;12.340;2022-12-20T06:41:58;-5.00;99.90
21622;DHT22;10973;46.706;12.340;2022-12-20T06:44:25;-5.00;99.90
21622;DHT22;10973;46.706;12.340;2022-12-20T06:46:52;-5.00;99.90
21622;DHT22;10973;46.706;12.340;2022-12-20T06:49:20;-5.00;99.90
21622;DHT22;10973;46.706;12.340;2022-12-20T06:51:47;-5.00;99.90
21622;DHT22;10973;46.706;12.340;2022-12-20T06:54:14;-4.90;99.90
21622;DHT22;10973;46.706;12.340;2022-12-20T06:56:44;-4.90;99.90
21622;DHT22;10973;46.706;12.340;2022-12-20T06:59:11;-4.90;99.90
21622;DHT22;10973;46.706;12.340;2022-12-20T07:01:39;-4.90;99.90
21622;DHT22;10973;46.706;12.340;2022-12-20T07:04:06;-4.80;99.90
21622;DHT22;10973;46.706;12.340;2022-12-20T07:06:34;-4.80;99.90
21622;DHT22;10973;46.706;12.340;2022-12-20T07:09:01;-4.70;99.90
21622;DHT22;10973;46.706;12.340;2022-12-20T07:11:29;-4.70;99.90
21622;DHT22;10973;46.706;12.340;2022-12-20T07:13:56;-4.70;99.90
21622;DHT22;10973;46.706;12.340;2022-12-20T07:16:24;-4.80;99.90
21622;DHT22;10973;46.706;12.340;2022-12-20T07:18:52;-4.80;99.90
21622;DHT22;10973;46.706;12.340;2022-12-20T07:21:20;-4.80;99.90
21622;DHT22;10973;46.706;12.340;2022-12-20T07:23:48;-4.70;99.90
21622;DHT22;10973;46.706;12.340;2022-12-20T07:26:15;-4.80;99.90
21622;DHT22;10973;46.706;12.340;2022-12-20T07:28:42;-4.70;99.90
21622;DHT22;10973;46.706;12.340;2022-12-20T07:31:09;-4.70;99.90
21622;DHT22;10973;46.706;12.340;2022-12-20T07:33:38;-4.80;99.90
21622;DHT22;10973;46.706;12.340;2022-12-20T07:36:08;-4.80;99.90
21622;DHT22;10973;46.706;12.340;2022-12-20T07:38:38;-4.80;99.90
21622;DHT22;10973;46.706;12.340;2022-12-20T07:41:10;-4.80;99.90
21622;DHT22;10973;46.706;12.340;2022-12-20T07:43:40;-4.70;99.90
21622;DHT22;10973;46.706;12.340;2022-12-20T07:46:10;-4.60;99.90
21622;DHT22;10973;46.706;12.340;2022-12-20T07:48:40;-4.70;99.90
21622;DHT22;10973;46.706;12.340;2022-12-20T07:51:25;-4.60;99.90
21622;DHT22;10973;46.706;12.340;2022-12-20T07:54:11;-4.50;99.90
21622;DHT22;10973;46.706;12.340;2022-12-20T07:56:49;-4.50;99.90
21622;DHT22;10973;46.706;12.340;2022-12-20T07:59:25;-4.50;99.90
21622;DHT22;10973;46.706;12.340;2022-12-20T08:01:56;-4.50;99.90
21622;DHT22;10973;46.706;12.340;2022-12-20T08:04:31;-4.40;99.90
21622;DHT22;10973;46.706;12.340;2022-12-20T08:07:00;-4.40;99.90
21622;DHT22;10973;46.706;12.340;2022-12-20T08:09:30;-4.40;99.90
21622;DHT22;10973;46.706;12.340;2022-12-20T08:12:02;-4.30;99.90
21622;DHT22;10973;46.706;12.340;2022-12-20T08:14:30;-4.20;99.90
21622;DHT22;10973;46.706;12.340;2022-12-20T08:16:58;-4.20;99.90
21622;DHT22;10973;46.706;12.340;2022-12-20T08:19:25;-4.20;99.90
21622;DHT22;10973;46.706;12.340;2022-12-20T08:21:58;-4.20;99.90
21622;DHT22;10973;46.706;12.340;2022-12-20T08:24:25;-4.20;99.90
21622;DHT22;10973;46.706;12.340;2022-12-20T08:26:53;-4.10;99.90
21622;DHT22;10973;46.706;12.340;2022-12-20T08:29:20;-4.10;99.90
21622;DHT22;10973;46.706;12.340;2022-12-20T08:31:47;-4.00;99.90
21622;DHT22;10973;46.706;12.340;2022-12-20T08:34:17;-4.00;99.90
21622;DHT22;10973;46.706;12.340;2022-12-20T08:36:44;-3.90;99.90
21622;DHT22;10973;46.706;12.340;2022-12-20T08:39:11;-3.80;99.90
21622;DHT22;10973;46.706;12.340;2022-12-20T08:41:39;-3.70;99.90
21622;DHT22;10973;46.706;12.340;2022-12-20T08:44:06;-3.70;99.90
21622;DHT22;10973;46.706;12.340;2022-12-20T08:46:33;-3.70;99.90
21622;DHT22;10973;46.706;12.340;2022-12-20T08:49:01;-3.70;99.90
21622;DHT22;10973;46.706;12.340;2022-12-20T08:51:28;-3.60;99.90
21622;DHT22;10973;46.706;12.340;2022-12-20T08:53:56;-3.50;99.90
21622;DHT22;10973;46.706;12.340;2022-12-20T08:56:23;-3.50;99.90
21622;DHT22;10973;46.706;12.340;2022-12-20T08:58:50;-3.50;99.90
21622;DHT22;10973;46.706;12.340;2022-12-20T09:01:19;-3.40;99.90
21622;DHT22;10973;46.706;12.340;2022-12-20T09:03:47;-3.40;99.90
21622;DHT22;10973;46.706;12.340;2022-12-20T09:06:17;-3.30;99.90
21622;DHT22;10973;46.706;12.340;2022-12-20T09:08:46;-3.30;99.90
21622;DHT22;10973;46.706;12.340;2022-12-20T09:11:17;-3.20;99.90
21622;DHT22;10973;46.706;12.340;2022-12-20T09:13:48;-3.20;99.90
21622;DHT22;10973;46.706;12.340;2022-12-20T09:16:19;-3.10;99.90
21622;DHT22;10973;46.706;12.340;2022-12-20T09:18:53;-3.00;99.90
21622;DHT22;10973;46.706;12.340;2022-12-20T09:21:31;-3.00;99.90
21622;DHT22;10973;46.706;12.340;2022-12-20T09:23:59;-2.90;99.90
21622;DHT22;10973;46.706;12.340;2022-12-20T09:26:26;-2.80;99.90
21622;DHT22;10973;46.706;12.340;2022-12-20T09:28:53;-2.70;99.90
21622;DHT22;10973;46.706;12.340;2022-12-20T09:31:23;-2.70;99.90
21622;DHT22;10973;46.706;12.340;2022-12-20T09:33:57;-2.60;99.90
21622;DHT22;10973;46.706;12.340;2022-12-20T09:36:28;-2.50;99.90
21622;DHT22;10973;46.706;12.340;2022-12-20T09:38:56;-2.50;99.90
21622;DHT22;10973;46.706;12.340;2022-12-20T09:41:40;-2.40;99.90
21622;DHT22;10973;46.706;12.340;2022-12-20T09:44:27;-2.40;99.90
21622;DHT22;10973;46.706;12.340;2022-12-20T09:47:20;-2.30;99.90
21622;DHT22;10973;46.706;12.340;2022-12-20T09:49:53;-2.30;99.90
21622;DHT22;10973;46.706;12.340;2022-12-20T09:52:32;-2.20;99.90
21622;DHT22;10973;46.706;12.340;2022-12-20T09:59:00;-2.10;99.90
21622;DHT22;10973;46.706;12.340;2022-12-20T10:01:32;-2.00;99.90
21622;DHT22;10973;46.706;12.340;2022-12-20T10:04:16;-1.90;99.90
21622;DHT22;10973;46.706;12.340;2022-12-20T10:10:35;-1.80;99.90
21622;DHT22;10973;46.706;12.340;2022-12-20T10:13:36;-1.70;99.90
21622;DHT22;10973;46.706;12.340;2022-12-20T10:22:22;-1.50;99.90
21622;DHT22;10973;46.706;12.340;2022-12-20T10:25:28;-1.50;99.90
21622;DHT22;10973;46.706;12.340;2022-12-20T10:28:02;-1.40;99.90
21622;DHT22;10973;46.706;12.340;2022-12-20T10:30:36;-1.50;99.90
21622;DHT22;10973;46.706;12.340;2022-12-20T10:33:03;-1.40;99.90
21622;DHT22;10973;46.706;12.340;2022-12-20T10:35:37;-1.40;99.90
21622;DHT22;10973;46.706;12.340;2022-12-20T10:38:09;-1.40;99.90
21622;DHT22;10973;46.706;12.340;2022-12-20T10:43:45;-1.30;99.90
21622;DHT22;10973;46.706;12.340;2022-12-20T10:46:19;-1.20;99.90
21622;DHT22;10973;46.706;12.340;2022-12-20T10:48:48;-1.10;99.90
21622;DHT22;10973;46.706;12.340;2022-12-20T10:51:21;-1.00;99.90
21622;DHT22;10973;46.706;12.340;2022-12-20T10:53:59;-0.90;99.90
21622;DHT22;10973;46.706;12.340;2022-12-20T10:56:31;-0.80;99.90
21622;DHT22;10973;46.706;12.340;2022-12-20T11:01:48;-0.60;99.90
21622;DHT22;10973;46.706;12.340;2022-12-20T11:04:32;-0.60;99.90
21622;DHT22;10973;46.706;12.340;2022-12-20T11:07:03;-0.50;99.90
21622;DHT22;10973;46.706;12.340;2022-12-20T11:09:55;-0.50;99.90
21622;DHT22;10973;46.706;12.340;2022-12-20T11:12:25;-0.50;99.90
21622;DHT22;10973;46.706;12.340;2022-12-20T11:15:08;-0.40;99.90
21622;DHT22;10973;46.706;12.340;2022-12-20T11:18:07;-0.20;99.90
21622;DHT22;10973;46.706;12.340;2022-12-20T11:23:42;0.70;99.90
21622;DHT22;10973;46.706;12.340;2022-12-20T11:35:46;4.60;99.90
21622;DHT22;10973;46.706;12.340;2022-12-20T11:41:15;4.60;99.90
21622;DHT22;10973;46.706;12.340;2022-12-20T11:43:50;4.20;99.90
21622;DHT22;10973;46.706;12.340;2022-12-20T11:49:51;3.60;99.90
21622;DHT22;10973;46.706;12.340;2022-12-20T11:52:50;2.90;99.90
21622;DHT22;10973;46.706;12.340;2022-12-20T11:55:26;2.20;99.90
21622;DHT22;10973;46.706;12.340;2022-12-20T11:59:11;1.80;99.90
21622;DHT22;10973;46.706;12.340;2022-12-20T12:01:08;1.40;99.90
21622;DHT22;10973;46.706;12.340;2022-12-20T12:03:40;1.10;99.90
21622;DHT22;10973;46.706;12.340;2022-12-20T12:06:21;0.90;99.90
21622;DHT22;10973;46.706;12.340;2022-12-20T12:12:23;0.60;99.90
21622;DHT22;10973;46.706;12.340;2022-12-20T12:15:34;0.50;99.90
21622;DHT22;10973;46.706;12.340;2022-12-20T12:18:17;0.40;99.90
21622;DHT22;10973;46.706;12.340;2022-12-20T12:21:23;0.40;99.90
21622;DHT22;10973;46.706;12.340;2022-12-20T12:24:02;0.40;99.90
21622;DHT22;10973;46.706;12.340;2022-12-20T12:26:34;0.40;99.90
21622;DHT22;10973;46.706;12.340;2022-12-20T12:46:56;0.60;99.90
21622;DHT22;10973;46.706;12.340;2022-12-20T12:49:29;0.60;99.90
21622;DHT22;10973;46.706;12.340;2022-12-20T12:52:00;0.60;99.90
21622;DHT22;10973;46.706;12.340;2022-12-20T12:54:41;0.70;99.90
21622;DHT22;10973;46.706;12.340;2022-12-20T12:57:14;0.70;99.90
21622;DHT22;10973;46.706;12.340;2022-12-20T12:59:45;0.70;99.90
21622;DHT22;10973;46.706;12.340;2022-12-20T13:20:25;1.10;99.90
21622;DHT22;10973;46.706;12.340;2022-12-20T13:25:58;1.10;99.90
21622;DHT22;10973;46.706;12.340;2022-12-20T13:33:39;1.10;99.90
21622;DHT22;10973;46.706;12.340;2022-12-20T13:49:43;1.00;99.90
21622;DHT22;10973;46.706;12.340;2022-12-20T13:54:49;0.90;99.90
21622;DHT22;10973;46.706;12.340;2022-12-20T13:57:40;0.90;99.90
21622;DHT22;10973;46.706;12.340;2022-12-20T14:00:23;0.90;99.90
21622;DHT22;10973;46.706;12.340;2022-12-20T14:02:52;0.90;99.90
21622;DHT22;10973;46.706;12.340;2022-12-20T14:05:25;1.00;99.90
21622;DHT22;10973;46.706;12.340;2022-12-20T14:08:09;1.00;99.90
21622;DHT22;10973;46.706;12.340;2022-12-20T14:10:42;1.00;99.90
21622;DHT22;10973;46.706;12.340;2022-12-20T14:15:53;1.00;99.90
21622;DHT22;10973;46.706;12.340;2022-12-20T14:18:22;0.90;99.90
21622;DHT22;10973;46.706;12.340;2022-12-20T14:20:57;0.80;99.90
21622;DHT22;10973;46.706;12.340;2022-12-20T14:23:47;0.70;99.90
21622;DHT22;10973;46.706;12.340;2022-12-20T14:26:29;0.70;99.90
21622;DHT22;10973;46.706;12.340;2022-12-20T14:29:02;0.70;99.90
21622;DHT22;10973;46.706;12.340;2022-12-20T14:31:48;0.60;99.90
21622;DHT22;10973;46.706;12.340;2022-12-20T14:34:23;0.50;99.90
21622;DHT22;10973;46.706;12.340;2022-12-20T14:37:16;0.50;99.90
21622;DHT22;10973;46.706;12.340;2022-12-20T14:39:55;0.40;99.90
21622;DHT22;10973;46.706;12.340;2022-12-20T14:42:36;0.40;99.90
21622;DHT22;10973;46.706;12.340;2022-12-20T14:50:36;0.20;99.90
21622;DHT22;10973;46.706;12.340;2022-12-20T14:53:21;0.20;99.90
21622;DHT22;10973;46.706;12.340;2022-12-20T14:55:51;0.20;99.90
21622;DHT22;10973;46.706;12.340;2022-12-20T14:58:27;0.00;99.90
21622;DHT22;10973;46.706;12.340;2022-12-20T15:01:02;0.00;99.90
21622;DHT22;10973;46.706;12.340;2022-12-20T15:03:57;0.00;99.90
21622;DHT22;10973;46.706;12.340;2022-12-20T15:06:40;-0.10;99.90
21622;DHT22;10973;46.706;12.340;2022-12-20T15:09:11;-0.10;99.90
21622;DHT22;10973;46.706;12.340;2022-12-20T15:11:41;-0.10;99.90
21622;DHT22;10973;46.706;12.340;2022-12-20T15:14:33;-0.20;99.90
21622;DHT22;10973;46.706;12.340;2022-12-20T15:17:10;-0.20;99.90
21622;DHT22;10973;46.706;12.340;2022-12-20T15:19:39;-0.30;99.90
21622;DHT22;10973;46.706;12.340;2022-12-20T15:22:14;-0.30;99.90
21622;DHT22;10973;46.706;12.340;2022-12-20T15:24:44;-0.30;99.90
21622;DHT22;10973;46.706;12.340;2022-12-20T15:27:13;-0.30;99.90
21622;DHT22;10973;46.706;12.340;2022-12-20T15:29:41;-0.40;99.90
21622;DHT22;10973;46.706;12.340;2022-12-20T15:32:22;-0.40;99.90
21622;DHT22;10973;46.706;12.340;2022-12-20T15:34:52;-0.40;99.90
21622;DHT22;10973;46.706;12.340;2022-12-20T15:37:19;-0.40;99.90
21622;DHT22;10973;46.706;12.340;2022-12-20T15:39:47;-0.50;99.90
21622;DHT22;10973;46.706;12.340;2022-12-20T15:42:16;-0.60;99.90
21622;DHT22;10973;46.706;12.340;2022-12-20T15:44:46;-0.60;99.90
21622;DHT22;10973;46.706;12.340;2022-12-20T15:47:15;-0.60;99.90
21622;DHT22;10973;46.706;12.340;2022-12-20T15:49:42;-0.70;99.90
21622;DHT22;10973;46.706;12.340;2022-12-20T15:52:21;-0.70;99.90
21622;DHT22;10973;46.706;12.340;2022-12-20T15:54:49;-0.70;99.90
21622;DHT22;10973;46.706;12.340;2022-12-20T15:57:17;-0.80;99.90
21622;DHT22;10973;46.706;12.340;2022-12-20T15:59:45;-0.80;99.90
21622;DHT22;10973;46.706;12.340;2022-12-20T16:02:31;-0.80;99.90
21622;DHT22;10973;46.706;12.340;2022-12-20T16:04:59;-0.80;99.90
21622;DHT22;10973;46.706;12.340;2022-12-20T16:07:26;-0.80;99.90
21622;DHT22;10973;46.706;12.340;2022-12-20T16:09:53;-0.90;99.90
21622;DHT22;10973;46.706;12.340;2022-12-20T16:12:24;-0.90;99.90
21622;DHT22;10973;46.706;12.340;2022-12-20T16:14:56;-0.90;99.90
21622;DHT22;10973;46.706;12.340;2022-12-20T16:17:24;-0.90;99.90
21622;DHT22;10973;46.706;12.340;2022-12-20T16:19:51;-0.90;99.90
21622;DHT22;10973;46.706;12.340;2022-12-20T16:22:20;-0.90;99.90
21622;DHT22;10973;46.706;12.340;2022-12-20T16:24:49;-1.00;99.90
21622;DHT22;10973;46.706;12.340;2022-12-20T16:27:16;-1.00;99.90
21622;DHT22;10973;46.706;12.340;2022-12-20T16:29:44;-1.00;99.90
21622;DHT22;10973;46.706;12.340;2022-12-20T16:32:16;-1.00;99.90
21622;DHT22;10973;46.706;12.340;2022-12-20T16:34:45;-1.00;99.90
21622;DHT22;10973;46.706;12.340;2022-12-20T16:37:14;-1.10;99.90
21622;DHT22;10973;46.706;12.340;2022-12-20T16:39:42;-1.10;99.90
21622;DHT22;10973;46.706;12.340;2022-12-20T16:42:13;-1.10;99.90
21622;DHT22;10973;46.706;12.340;2022-12-20T16:44:43;-1.10;99.90
21622;DHT22;10973;46.706;12.340;2022-12-20T16:47:12;-1.20;99.90
21622;DHT22;10973;46.706;12.340;2022-12-20T16:49:41;-1.20;99.90
21622;DHT22;10973;46.706;12.340;2022-12-20T16:52:18;-1.20;99.90
21622;DHT22;10973;46.706;12.340;2022-12-20T16:54:46;-1.30;99.90
21622;DHT22;10973;46.706;12.340;2022-12-20T16:57:13;-1.30;99.90
21622;DHT22;10973;46.706;12.340;2022-12-20T16:59:40;-1.30;99.90
21622;DHT22;10973;46.706;12.340;2022-12-20T17:02:27;-1.30;99.90
21622;DHT22;10973;46.706;12.340;2022-12-20T17:04:57;-1.30;99.90
21622;DHT22;10973;46.706;12.340;2022-12-20T17:07:25;-1.30;99.90
21622;DHT22;10973;46.706;12.340;2022-12-20T17:09:53;-1.30;99.90
21622;DHT22;10973;46.706;12.340;2022-12-20T17:12:39;-1.40;99.90
21622;DHT22;10973;46.706;12.340;2022-12-20T17:15:23;-1.40;99.90
21622;DHT22;10973;46.706;12.340;2022-12-20T17:17:54;-1.40;99.90
21622;DHT22;10973;46.706;12.340;2022-12-20T17:20:22;-1.50;99.90
21622;DHT22;10973;46.706;12.340;2022-12-20T17:22:52;-1.50;99.90
21622;DHT22;10973;46.706;12.340;2022-12-20T17:25:34;-1.50;99.90
21622;DHT22;10973;46.706;12.340;2022-12-20T17:28:01;-1.50;99.90
21622;DHT22;10973;46.706;12.340;2022-12-20T17:30:29;-1.50;99.90
21622;DHT22;10973;46.706;12.340;2022-12-20T17:32:56;-1.50;99.90
21622;DHT22;10973;46.706;12.340;2022-12-20T17:35:28;-1.50;99.90
21622;DHT22;10973;46.706;12.340;2022-12-20T17:37:57;-1.60;99.90
21622;DHT22;10973;46.706;12.340;2022-12-20T17:40:26;-1.50;99.90
21622;DHT22;10973;46.706;12.340;2022-12-20T17:42:54;-1.50;99.90
21622;DHT22;10973;46.706;12.340;2022-12-20T17:45:28;-1.50;99.90
21622;DHT22;10973;46.706;12.340;2022-12-20T17:47:58;-1.50;99.90
21622;DHT22;10973;46.706;12.340;2022-12-20T17:50:26;-1.60;99.90
21622;DHT22;10973;46.706;12.340;2022-12-20T17:52:53;-1.60;99.90